Time;durP1;ratioP1;P1;durP2;ratioP2;P2;SDS_P1;SDS_P2;PMS_P1;PMS_P2;Temp;Humidity;BMP_temperature;BMP_pressure;BME280_temperature;BME280_humidity;BME280_pressure;Samples;Min_cycle;Max_cycle;Signal;HPM_P1;HPM_P2
2023/09/02 00:01:16;;;;;;;0.70;0.70;;;;;;;15.94;100.00;98726.53;4205347;28;20198;-62
2023/09/02 00:03:18;;;;;;;0.32;0.32;;;;;;;15.89;100.00;98723.75;4203331;28;20203;-62
2023/09/02 00:05:20;;;;;;;0.40;0.40;;;;;;;15.87;100.00;98730.66;4202038;28;20226;-62
2023/09/02 00:07:21;;;;;;;0.50;0.50;;;;;;;15.86;100.00;98729.84;4204682;28;20298;-62
2023/09/02 00:09:23;;;;;;;0.40;0.32;;;;;;;15.86;100.00;98724.34;4201967;28;20641;-62
2023/09/02 00:11:25;;;;;;;0.32;0.32;;;;;;;15.83;100.00;98724.88;4188451;28;20202;-62
2023/09/02 00:13:26;;;;;;;0.30;0.30;;;;;;;15.86;100.00;98723.50;4210714;28;20309;-62
2023/09/02 00:15:28;;;;;;;0.30;0.30;;;;;;;15.87;100.00;98725.16;4209307;28;20230;-62
2023/09/02 00:17:31;;;;;;;0.30;0.30;;;;;;;15.88;100.00;98730.41;4208201;28;20245;-62
2023/09/02 00:19:33;;;;;;;0.55;0.55;;;;;;;15.90;100.00;98722.66;4200334;28;20213;-62
2023/09/02 00:21:34;;;;;;;0.35;0.35;;;;;;;15.84;100.00;98725.72;4204324;28;20209;-62
2023/09/02 00:23:39;;;;;;;0.30;0.30;;;;;;;15.81;100.00;98726.25;4202469;28;20245;-62
2023/09/02 00:25:41;;;;;;;0.30;0.30;;;;;;;15.84;100.00;98721.00;4205876;28;20209;-62
2023/09/02 00:27:43;;;;;;;0.52;0.52;;;;;;;15.84;100.00;98726.53;4204130;28;20307;-62
2023/09/02 00:29:44;;;;;;;0.40;0.40;;;;;;;15.78;100.00;98724.91;4202592;28;20219;-62
2023/09/02 00:31:46;;;;;;;0.30;0.30;;;;;;;15.74;100.00;98721.03;4205573;28;20252;-62
2023/09/02 00:33:47;;;;;;;0.57;0.57;;;;;;;15.71;100.00;98716.06;4205928;28;20219;-62
2023/09/02 00:35:49;;;;;;;0.30;0.30;;;;;;;15.70;100.00;98725.44;4200795;28;20286;-62
2023/09/02 00:37:51;;;;;;;0.55;0.55;;;;;;;15.69;100.00;98731.25;4201951;28;20206;-62
2023/09/02 00:39:53;;;;;;;0.63;0.55;;;;;;;15.68;100.00;98727.66;4180758;28;20203;-62
2023/09/02 00:41:55;;;;;;;0.45;0.45;;;;;;;15.71;100.00;98731.81;4203895;28;20230;-62
2023/09/02 00:43:58;;;;;;;0.50;0.50;;;;;;;15.74;100.00;98723.78;4185771;28;20628;-62
2023/09/02 00:45:59;;;;;;;0.47;0.47;;;;;;;15.75;100.00;98725.44;4181037;28;20207;-62
2023/09/02 00:48:02;;;;;;;1.23;0.50;;;;;;;15.76;100.00;98723.53;4204798;28;20214;-62
2023/09/02 00:50:04;;;;;;;0.35;0.35;;;;;;;15.68;100.00;98733.19;4182200;28;20239;-62
2023/09/02 00:52:06;;;;;;;0.30;0.30;;;;;;;15.66;100.00;98732.66;4204126;28;20202;-62
2023/09/02 00:54:08;;;;;;;0.40;0.40;;;;;;;15.67;100.00;98726.00;4184172;28;20247;-62
2023/09/02 00:56:09;;;;;;;1.75;0.80;;;;;;;15.76;100.00;98727.09;4184553;28;20237;-62
2023/09/02 00:58:12;;;;;;;0.32;0.32;;;;;;;15.69;100.00;98732.06;4182297;28;20333;-62
2023/09/02 01:00:14;;;;;;;0.30;0.30;;;;;;;15.67;100.00;98726.00;4183698;28;20233;-62
2023/09/02 01:02:16;;;;;;;0.40;0.40;;;;;;;15.71;100.00;98727.09;4202202;28;20199;-62
2023/09/02 01:04:18;;;;;;;0.38;0.38;;;;;;;15.71;100.00;98729.84;4204120;28;20221;-62
2023/09/02 01:06:21;;;;;;;0.70;0.70;;;;;;;15.69;100.00;98723.78;4204018;28;20260;-62
2023/09/02 01:08:23;;;;;;;0.40;0.40;;;;;;;15.68;100.00;98724.91;4181430;28;20204;-62
2023/09/02 01:10:25;;;;;;;0.40;0.40;;;;;;;15.68;100.00;98727.66;4202500;28;20237;-62
2023/09/02 01:12:26;;;;;;;1.98;0.77;;;;;;;15.71;100.00;98718.00;4201196;28;20617;-62
2023/09/02 01:14:28;;;;;;;0.40;0.40;;;;;;;15.74;100.00;98726.56;4202371;28;20699;-62
2023/09/02 01:16:31;;;;;;;1.08;0.40;;;;;;;15.65;100.00;98733.75;4203830;28;20209;-62
2023/09/02 01:18:36;;;;;;;0.45;0.45;;;;;;;15.64;100.00;98737.59;4169897;28;20195;-62
2023/09/02 01:20:55;;;;;;;0.50;0.50;;;;;;;15.58;100.00;98735.97;4202073;28;20294;-62
2023/09/02 01:23:12;;;;;;;0.30;0.30;;;;;;;15.56;100.00;98735.38;4203941;28;20242;-62
2023/09/02 01:25:32;;;;;;;0.30;0.30;;;;;;;15.53;100.00;98727.69;4203620;28;20333;-62
2023/09/02 01:27:37;;;;;;;0.90;0.90;;;;;;;15.53;100.00;98730.44;4203911;28;20228;-62
2023/09/02 01:29:44;;;;;;;0.30;0.30;;;;;;;15.50;100.00;98736.50;4188100;28;20243;-62
2023/09/02 01:31:47;;;;;;;0.30;0.30;;;;;;;15.49;100.00;98729.31;4183033;28;20305;-62
2023/09/02 01:33:52;;;;;;;0.45;0.35;;;;;;;15.53;100.00;98735.97;4181066;28;20250;-62
2023/09/02 01:35:57;;;;;;;0.40;0.40;;;;;;;15.59;100.00;98734.84;4184164;28;20255;-62
2023/09/02 01:38:00;;;;;;;0.30;0.30;;;;;;;15.60;100.00;98735.66;4187928;28;20222;-62
2023/09/02 01:40:05;;;;;;;0.45;0.45;;;;;;;15.40;100.00;98731.00;4170011;28;20232;-62
2023/09/02 01:42:08;;;;;;;0.40;0.40;;;;;;;15.46;100.00;98735.41;4187625;28;20207;-62
2023/09/02 01:44:10;;;;;;;0.32;0.32;;;;;;;15.51;100.00;98738.16;4187233;28;20859;-62
2023/09/02 01:46:12;;;;;;;0.10;0.10;;;;;;;15.53;100.00;98735.97;4180675;28;20242;-62
2023/09/02 01:48:14;;;;;;;1.13;1.02;;;;;;;15.47;100.00;98737.06;4202787;28;20209;-62
2023/09/02 01:50:19;;;;;;;0.28;0.28;;;;;;;15.55;100.00;98739.25;4202197;28;20275;-62
2023/09/02 01:52:21;;;;;;;0.45;0.32;;;;;;;15.51;100.00;98743.66;4183805;28;20800;-62
2023/09/02 01:54:23;;;;;;;0.30;0.30;;;;;;;15.30;100.00;98749.44;4199255;28;20319;-62
2023/09/02 01:56:24;;;;;;;0.52;0.52;;;;;;;15.28;100.00;98751.63;4181494;28;20580;-62
2023/09/02 01:58:26;;;;;;;0.38;0.38;;;;;;;15.24;100.00;98756.03;4181131;28;20211;-62
2023/09/02 02:00:28;;;;;;;0.90;0.40;;;;;;;15.30;100.00;98750.25;4200507;28;20207;-62
2023/09/02 02:02:30;;;;;;;0.30;0.30;;;;;;;15.37;100.00;98745.31;4180741;28;20211;-62
2023/09/02 02:04:37;;;;;;;0.40;0.40;;;;;;;15.34;100.00;98745.03;4201945;28;20305;-63
2023/09/02 02:06:39;;;;;;;0.20;0.20;;;;;;;15.37;100.00;98748.06;4200945;28;20223;-62
2023/09/02 02:08:53;;;;;;;0.40;0.40;;;;;;;15.38;100.00;98755.28;4179845;28;20296;-62
2023/09/02 02:10:58;;;;;;;0.30;0.30;;;;;;;15.41;100.00;98754.72;4203392;28;20198;-63
2023/09/02 02:13:02;;;;;;;2.50;0.65;;;;;;;15.42;100.00;98756.34;4184335;28;20199;-63
2023/09/02 02:15:04;;;;;;;0.38;0.38;;;;;;;15.46;100.00;98760.22;4202597;28;20250;-62
2023/09/02 02:17:07;;;;;;;0.30;0.30;;;;;;;15.48;100.00;98752.50;4201076;28;20225;-62
2023/09/02 02:19:08;;;;;;;0.35;0.35;;;;;;;15.48;100.00;98747.00;4181118;28;20291;-62
2023/09/02 02:21:10;;;;;;;0.30;0.30;;;;;;;15.51;100.00;98743.66;4204325;28;20246;-62
2023/09/02 02:23:12;;;;;;;0.30;0.30;;;;;;;15.54;100.00;98743.13;4208861;28;20261;-62
2023/09/02 02:25:13;;;;;;;0.20;0.20;;;;;;;15.56;100.00;98746.44;4184043;28;20653;-62
2023/09/02 02:27:15;;;;;;;0.20;0.20;;;;;;;15.54;100.00;98743.13;4189943;28;20633;-62
2023/09/02 02:29:16;;;;;;;0.43;0.43;;;;;;;15.53;100.00;98735.97;4205778;28;20294;-62
2023/09/02 02:31:18;;;;;;;0.30;0.30;;;;;;;15.56;100.00;98735.38;4202264;28;20230;-62
2023/09/02 02:33:20;;;;;;;0.20;0.20;;;;;;;15.54;100.00;98743.13;4204453;28;20198;-61
2023/09/02 02:35:22;;;;;;;0.35;0.35;;;;;;;15.53;100.00;98746.16;4183874;28;20257;-62
2023/09/02 02:37:23;;;;;;;0.30;0.30;;;;;;;15.53;100.00;98741.47;4183444;28;20227;-62
2023/09/02 02:39:25;;;;;;;0.20;0.20;;;;;;;15.56;100.00;98746.44;4204578;28;20199;-62
2023/09/02 02:41:26;;;;;;;0.32;0.32;;;;;;;15.65;100.00;98735.66;4203731;28;20246;-62
2023/09/02 02:43:28;;;;;;;0.63;0.63;;;;;;;15.67;100.00;98748.09;4204309;28;20235;-62
2023/09/02 02:45:30;;;;;;;0.73;0.73;;;;;;;15.68;100.00;98749.75;4185700;28;20266;-62
2023/09/02 02:47:31;;;;;;;0.30;0.30;;;;;;;15.76;100.00;98745.59;4204760;28;21321;-62
2023/09/02 02:49:33;;;;;;;0.20;0.20;;;;;;;15.56;100.00;98746.44;4183006;28;20209;-62
2023/09/02 02:51:34;;;;;;;0.50;0.50;;;;;;;15.48;100.00;98754.41;4204896;28;20674;-62
2023/09/02 02:53:36;;;;;;;0.38;0.38;;;;;;;15.44;100.00;98750.56;4173406;28;20267;-62
2023/09/02 02:55:38;;;;;;;0.40;0.40;;;;;;;15.22;100.00;98745.28;4202437;28;20285;-62
2023/09/02 02:57:40;;;;;;;0.30;0.30;;;;;;;15.23;100.00;98754.41;4189826;28;20199;-62
2023/09/02 02:59:41;;;;;;;0.35;0.35;;;;;;;15.36;100.00;98757.47;4203425;28;20265;-62
2023/09/02 03:01:43;;;;;;;0.20;0.20;;;;;;;15.38;100.00;98760.78;4204802;28;20238;-62
2023/09/02 03:03:44;;;;;;;0.95;0.95;;;;;;;15.35;100.00;98766.03;4183299;28;20716;-62
2023/09/02 03:05:46;;;;;;;0.30;0.30;;;;;;;15.41;100.00;98771.25;4203863;28;20718;-62
2023/09/02 03:07:48;;;;;;;0.40;0.40;;;;;;;15.44;100.00;98769.88;4202750;28;20302;-62
2023/09/02 03:09:50;;;;;;;0.85;0.40;;;;;;;15.45;100.00;98777.88;4182433;28;20258;-62
2023/09/02 03:11:51;;;;;;;0.52;0.52;;;;;;;15.51;100.00;98776.75;4204025;28;20203;-63
2023/09/02 03:13:54;;;;;;;0.57;0.57;;;;;;;15.58;100.00;98779.25;4204702;28;20256;-62
2023/09/02 03:15:56;;;;;;;0.60;0.60;;;;;;;15.63;100.00;98768.25;4204414;28;20255;-62
2023/09/02 03:17:58;;;;;;;0.40;0.40;;;;;;;15.63;100.00;98769.03;4204729;28;21092;-62
2023/09/02 03:19:59;;;;;;;0.80;0.80;;;;;;;15.63;100.00;98779.28;4204227;28;20203;-62
2023/09/02 03:22:01;;;;;;;0.30;0.30;;;;;;;15.63;100.00;98777.31;4185494;28;20381;-62
2023/09/02 03:24:04;;;;;;;0.40;0.40;;;;;;;15.67;100.00;98785.88;4205082;28;20246;-63
2023/09/02 03:26:09;;;;;;;0.32;0.32;;;;;;;15.69;100.00;98778.16;4202768;28;20563;-62
2023/09/02 03:28:12;;;;;;;0.30;0.30;;;;;;;15.60;100.00;98786.16;4173116;28;20207;-62
2023/09/02 03:30:14;;;;;;;0.55;0.55;;;;;;;15.66;100.00;98785.06;4186735;28;20211;-62
2023/09/02 03:32:16;;;;;;;0.30;0.30;;;;;;;15.73;100.00;98785.63;4205324;28;20332;-62
2023/09/02 03:34:17;;;;;;;0.35;0.35;;;;;;;15.74;100.00;98792.78;4203140;28;20238;-63
2023/09/02 03:36:22;;;;;;;0.60;0.60;;;;;;;15.77;100.00;98781.19;4205593;28;20230;-62
2023/09/02 03:38:23;;;;;;;0.20;0.20;;;;;;;15.63;100.00;98785.59;4182808;28;20242;-62
2023/09/02 03:40:25;;;;;;;0.30;0.30;;;;;;;15.61;100.00;98779.53;4201947;28;20294;-62
2023/09/02 03:42:26;;;;;;;0.30;0.30;;;;;;;15.61;100.00;98782.28;4203788;28;20230;-63
2023/09/02 03:44:28;;;;;;;0.30;0.30;;;;;;;15.63;100.00;98790.31;4204459;28;20683;-62
2023/09/02 03:46:29;;;;;;;0.40;0.40;;;;;;;15.67;100.00;98786.72;4203169;28;20580;-62
2023/09/02 03:48:34;;;;;;;0.30;0.30;;;;;;;15.67;100.00;98783.97;4203096;28;20210;-62
2023/09/02 03:51:03;;;;;;;0.30;0.30;;;;;;;15.67;100.00;98775.69;4204420;28;20210;-63
2023/09/02 03:53:07;;;;;;;0.30;0.30;;;;;;;15.69;100.00;98781.75;4202012;28;20327;-62
2023/09/02 03:55:09;;;;;;;0.60;0.60;;;;;;;15.70;100.00;98779.81;4188294;28;20232;-62
2023/09/02 03:57:10;;;;;;;0.30;0.30;;;;;;;15.71;100.00;98782.28;4204064;28;20206;-62
2023/09/02 03:59:12;;;;;;;0.30;0.30;;;;;;;15.71;100.00;98792.50;4202179;28;20234;-62
2023/09/02 04:01:13;;;;;;;0.30;0.30;;;;;;;15.70;100.00;98788.91;4202588;28;20663;-62
2023/09/02 04:03:15;;;;;;;0.80;0.80;;;;;;;15.69;100.00;98794.72;4186386;28;20207;-62
2023/09/02 04:05:17;;;;;;;1.48;0.50;;;;;;;15.72;100.00;98783.97;4203142;28;20222;-62
2023/09/02 04:07:19;;;;;;;0.30;0.30;;;;;;;15.72;100.00;98777.59;4203605;28;20202;-62
2023/09/02 04:09:21;;;;;;;0.30;0.30;;;;;;;15.68;100.00;98780.09;4202715;28;20238;-62
2023/09/02 04:11:23;;;;;;;0.45;0.45;;;;;;;15.72;100.00;98777.59;4201387;28;20797;-62
2023/09/02 04:13:25;;;;;;;4.68;1.13;;;;;;;15.65;100.00;98780.66;4184414;28;20203;-62
2023/09/02 04:15:27;;;;;;;0.50;0.50;;;;;;;15.67;100.00;98775.69;4182156;28;20227;-62
2023/09/02 04:17:29;;;;;;;0.30;0.30;;;;;;;15.74;100.00;98786.41;4188054;28;20200;-62
2023/09/02 04:19:30;;;;;;;0.28;0.28;;;;;;;15.71;100.00;98781.47;4204565;28;20610;-62
2023/09/02 04:21:32;;;;;;;0.20;0.20;;;;;;;15.80;100.00;98780.63;4186015;28;20283;-62
2023/09/02 04:23:34;;;;;;;0.50;0.50;;;;;;;15.69;100.00;98773.47;4202870;28;20214;-62
2023/09/02 04:25:50;;;;;;;0.65;0.65;;;;;;;15.65;100.00;98777.91;4203576;28;20218;-62
2023/09/02 04:27:52;;;;;;;3.35;0.82;;;;;;;15.66;100.00;98773.19;4204193;28;20198;-62
2023/09/02 04:29:53;;;;;;;0.40;0.40;;;;;;;15.42;100.00;98772.91;4184052;28;20195;-62
2023/09/02 04:31:55;;;;;;;0.35;0.35;;;;;;;15.48;100.00;98769.06;4204126;28;20239;-62
2023/09/02 04:33:59;;;;;;;0.20;0.20;;;;;;;15.51;100.00;98775.94;4184110;28;20255;-63
2023/09/02 04:36:02;;;;;;;0.40;0.40;;;;;;;15.49;100.00;98781.75;4182054;28;20258;-62
2023/09/02 04:38:05;;;;;;;0.30;0.30;;;;;;;15.45;100.00;98782.56;4187069;28;20217;-62
2023/09/02 04:40:07;;;;;;;0.50;0.50;;;;;;;15.46;100.00;98784.22;4180484;28;20199;-62
2023/09/02 04:42:10;;;;;;;0.30;0.30;;;;;;;15.42;100.00;98783.94;4186986;28;20226;-62
2023/09/02 04:44:16;;;;;;;0.30;0.30;;;;;;;15.42;100.00;98794.16;4202583;28;20596;-62
2023/09/02 04:46:18;;;;;;;0.20;0.20;;;;;;;15.51;100.00;98793.31;4185587;28;20245;-63
2023/09/02 04:48:19;;;;;;;0.65;0.40;;;;;;;15.59;100.00;98787.28;4181421;28;20202;-63
2023/09/02 04:50:21;;;;;;;0.40;0.40;;;;;;;15.61;100.00;98793.34;4201446;28;20202;-63
2023/09/02 04:52:22;;;;;;;0.40;0.40;;;;;;;15.53;100.00;98785.63;4201891;28;20956;-62
2023/09/02 04:54:24;;;;;;;0.30;0.30;;;;;;;15.47;100.00;98786.72;4201944;28;20253;-62
2023/09/02 04:56:25;;;;;;;0.30;0.30;;;;;;;15.50;100.00;98791.66;4202126;28;20298;-62
2023/09/02 04:58:27;;;;;;;1.02;1.02;;;;;;;15.49;100.00;98789.19;4201777;28;20251;-62
2023/09/02 05:00:30;;;;;;;0.70;0.70;;;;;;;15.43;100.00;98796.63;4201375;28;20217;-62
2023/09/02 05:02:31;;;;;;;0.20;0.20;;;;;;;15.45;100.00;98788.09;4201239;28;20660;-62
2023/09/02 05:04:33;;;;;;;0.20;0.20;;;;;;;15.39;100.00;98801.06;4207016;28;20214;-62
2023/09/02 05:06:35;;;;;;;0.45;0.45;;;;;;;15.35;100.00;98791.66;4180327;28;20291;-62
2023/09/02 05:08:36;;;;;;;0.20;0.20;;;;;;;15.38;100.00;98802.16;4200821;28;20211;-62
2023/09/02 05:10:38;;;;;;;0.82;0.82;;;;;;;15.42;100.00;98792.22;4181289;28;20637;-62
2023/09/02 05:12:41;;;;;;;0.30;0.30;;;;;;;15.40;100.00;98797.19;4202093;28;20198;-62
2023/09/02 05:14:42;;;;;;;0.30;0.30;;;;;;;15.39;100.00;98801.06;4203343;28;20253;-62
2023/09/02 05:16:44;;;;;;;0.55;0.55;;;;;;;15.40;100.00;98796.34;4202255;28;20235;-62
2023/09/02 05:18:45;;;;;;;0.20;0.20;;;;;;;15.41;100.00;98800.75;4201365;28;20214;-62
2023/09/02 05:20:47;;;;;;;0.30;0.30;;;;;;;15.43;100.00;98804.91;4202112;28;20200;-62
2023/09/02 05:22:49;;;;;;;0.30;0.30;;;;;;;15.46;100.00;98807.13;4201331;28;20306;-62
2023/09/02 05:24:51;;;;;;;0.30;0.30;;;;;;;15.50;100.00;98802.69;4180484;28;20250;-62
2023/09/02 05:26:52;;;;;;;0.30;0.30;;;;;;;15.52;100.00;98799.69;4202020;28;20215;-62
2023/09/02 05:28:54;;;;;;;0.28;0.28;;;;;;;15.59;100.00;98806.59;4200560;28;20238;-62
2023/09/02 05:30:55;;;;;;;0.40;0.40;;;;;;;15.66;100.00;98807.13;4201287;28;20199;-62
2023/09/02 05:32:57;;;;;;;0.30;0.30;;;;;;;15.52;100.00;98810.72;4203901;28;20234;-62
2023/09/02 05:34:59;;;;;;;0.32;0.32;;;;;;;15.52;100.00;98811.53;4204084;28;20285;-62
2023/09/02 05:37:02;;;;;;;0.50;0.50;;;;;;;15.51;100.00;98809.88;4184273;28;20290;-61
2023/09/02 05:39:04;;;;;;;2.55;0.50;;;;;;;15.61;100.00;98815.41;4183018;28;20289;-62
2023/09/02 05:41:05;;;;;;;0.35;0.35;;;;;;;15.62;100.00;98819.00;4200196;28;20238;-62
2023/09/02 05:43:07;;;;;;;0.40;0.40;;;;;;;15.62;100.00;98816.25;4204724;28;20232;-62
2023/09/02 05:45:09;;;;;;;0.40;0.40;;;;;;;15.60;100.00;98821.19;4203542;28;20257;-62
2023/09/02 05:47:11;;;;;;;0.20;0.20;;;;;;;15.63;100.00;98824.22;4201824;28;20923;-62
2023/09/02 05:49:14;;;;;;;0.40;0.40;;;;;;;15.66;100.00;98833.88;4186571;28;20218;-62
2023/09/02 05:51:16;;;;;;;0.30;0.30;;;;;;;15.68;100.00;98838.03;4185191;28;20239;-62
2023/09/02 05:53:17;;;;;;;0.30;0.30;;;;;;;15.72;100.00;98832.78;4202282;28;20241;-61
2023/09/02 05:55:19;;;;;;;0.40;0.40;;;;;;;15.77;100.00;98836.38;4202441;28;20323;-62
2023/09/02 05:57:21;;;;;;;0.40;0.40;;;;;;;15.79;100.00;98834.19;4203390;28;20233;-62
2023/09/02 05:59:22;;;;;;;0.43;0.43;;;;;;;15.80;100.00;98838.59;4204142;28;20203;-62
2023/09/02 06:01:24;;;;;;;0.50;0.50;;;;;;;15.84;100.00;98844.38;4202037;28;20202;-62
2023/09/02 06:03:26;;;;;;;32.33;2.08;;;;;;;15.88;100.00;98843.56;4204091;28;20202;-62
2023/09/02 06:05:29;;;;;;;0.22;0.22;;;;;;;15.88;100.00;98843.56;4204552;28;20222;-63
2023/09/02 06:07:30;;;;;;;0.43;0.43;;;;;;;15.92;100.00;98839.16;4184548;28;20238;-62
2023/09/02 06:09:32;;;;;;;0.20;0.20;;;;;;;15.94;100.00;98841.63;4206432;28;20245;-62
2023/09/02 06:11:33;;;;;;;0.30;0.30;;;;;;;15.97;100.00;98846.59;4204334;28;20710;-62
2023/09/02 06:13:35;;;;;;;0.35;0.35;;;;;;;15.97;100.00;98841.88;4191138;28;20745;-62
2023/09/02 06:15:37;;;;;;;0.25;0.25;;;;;;;16.02;100.00;98833.63;4210854;28;20248;-62
2023/09/02 06:17:38;;;;;;;0.20;0.20;;;;;;;16.06;100.00;98843.00;4212496;28;20237;-63
2023/09/02 06:19:41;;;;;;;0.65;0.65;;;;;;;16.14;100.00;98841.59;4192620;28;20208;-62
2023/09/02 06:21:42;;;;;;;0.40;0.40;;;;;;;16.17;100.00;98841.88;4209410;28;20203;-62
2023/09/02 06:23:44;;;;;;;0.60;0.60;;;;;;;16.24;100.00;98842.41;4210357;28;20218;-62
2023/09/02 06:25:58;;;;;;;0.45;0.45;;;;;;;16.27;100.00;98843.81;4192664;28;20588;-62
2023/09/02 06:28:00;;;;;;;0.45;0.40;;;;;;;16.29;100.00;98845.19;4204399;28;20211;-63
2023/09/02 06:30:02;;;;;;;0.50;0.45;;;;;;;16.26;100.00;98845.75;4204180;28;20241;-62
2023/09/02 06:32:04;;;;;;;0.30;0.30;;;;;;;16.40;100.00;98857.91;4171822;28;20200;-62
2023/09/02 06:34:06;;;;;;;0.28;0.28;;;;;;;16.74;100.00;98853.41;4205450;28;20226;-62
2023/09/02 06:36:11;;;;;;;0.20;0.20;;;;;;;17.14;100.00;98847.69;4206695;28;20317;-63
2023/09/02 06:38:13;;;;;;;0.30;0.30;;;;;;;17.27;100.00;98858.16;4190533;28;20309;-62
2023/09/02 06:40:15;;;;;;;1.05;0.55;;;;;;;17.58;100.00;98856.91;4185030;28;20237;-62
2023/09/02 06:42:16;;;;;;;0.30;0.30;;;;;;;17.13;100.00;98855.16;4185793;28;20644;-62
2023/09/02 06:44:18;;;;;;;0.52;0.52;;;;;;;17.29;100.00;98855.91;4186633;28;20315;-62
2023/09/02 06:46:20;;;;;;;0.30;0.30;;;;;;;18.15;100.00;98862.53;4185306;28;20239;-62
2023/09/02 06:48:22;;;;;;;0.30;0.30;;;;;;;18.89;100.00;98860.13;4187759;28;20234;-62
2023/09/02 06:50:23;;;;;;;0.85;0.63;;;;;;;19.46;100.00;98860.00;4204734;28;20229;-63
2023/09/02 06:52:25;;;;;;;0.50;0.50;;;;;;;19.70;100.00;98863.50;4208391;28;20221;-62
2023/09/02 06:54:26;;;;;;;0.45;0.45;;;;;;;19.80;100.00;98860.59;4183110;28;20665;-62
2023/09/02 06:56:28;;;;;;;0.32;0.32;;;;;;;20.10;100.00;98860.16;4202366;28;20241;-62
2023/09/02 06:58:29;;;;;;;0.57;0.57;;;;;;;20.13;100.00;98865.09;4203974;28;20199;-62
2023/09/02 07:00:33;;;;;;;0.35;0.35;;;;;;;19.71;100.00;98862.41;4187812;28;20334;-62
2023/09/02 07:02:35;;;;;;;0.40;0.40;;;;;;;19.66;100.00;98870.81;4182715;28;20554;-62
2023/09/02 07:04:37;;;;;;;0.47;0.47;;;;;;;19.80;100.00;98882.81;4187236;28;20294;-61
2023/09/02 07:06:38;;;;;;;0.30;0.30;;;;;;;20.33;100.00;98876.69;4204915;28;20835;-61
2023/09/02 07:08:40;;;;;;;0.90;0.75;;;;;;;20.41;100.00;98883.50;4205371;28;20286;-62
2023/09/02 07:10:42;;;;;;;0.30;0.30;;;;;;;20.73;100.00;98891.81;4207206;28;20299;-62
2023/09/02 07:12:43;;;;;;;0.20;0.20;;;;;;;20.85;100.00;98890.19;4206681;28;20210;-62
2023/09/02 07:14:45;;;;;;;0.32;0.32;;;;;;;20.64;100.00;98893.66;4203949;28;20222;-62
2023/09/02 07:16:46;;;;;;;0.20;0.20;;;;;;;20.88;100.00;98900.75;4182844;28;20231;-61
2023/09/02 07:18:48;;;;;;;0.63;0.60;;;;;;;20.95;100.00;98900.31;4185410;28;20209;-62
2023/09/02 07:20:49;;;;;;;0.20;0.20;;;;;;;20.82;100.00;98903.88;4204920;28;20198;-62
2023/09/02 07:22:51;;;;;;;0.95;0.73;;;;;;;20.38;100.00;98907.19;4204159;28;20283;-62
2023/09/02 07:24:53;;;;;;;0.20;0.20;;;;;;;20.39;100.00;98902.47;4206052;28;20279;-62
2023/09/02 07:26:54;;;;;;;0.47;0.47;;;;;;;20.48;100.00;98901.47;4182965;28;20724;-62
2023/09/02 07:28:56;;;;;;;0.30;0.30;;;;;;;20.91;100.00;98893.75;4204992;28;20229;-63
2023/09/02 07:30:58;;;;;;;0.32;0.32;;;;;;;21.14;100.00;98892.72;4204508;28;20682;-64
2023/09/02 07:33:00;;;;;;;0.47;0.47;;;;;;;21.18;98.45;98899.31;4204841;28;20253;-63
2023/09/02 07:35:02;;;;;;;0.30;0.30;;;;;;;21.26;97.62;98906.94;4204296;28;20264;-63
2023/09/02 07:37:03;;;;;;;0.20;0.20;;;;;;;21.84;96.66;98896.81;4205132;28;20241;-64
2023/09/02 07:39:05;;;;;;;0.32;0.32;;;;;;;21.71;99.02;98908.81;4204328;28;20202;-63
2023/09/02 07:41:08;;;;;;;0.22;0.22;;;;;;;22.62;92.40;98897.94;4205930;28;20202;-63
2023/09/02 07:43:10;;;;;;;0.30;0.30;;;;;;;22.80;91.05;98901.66;4206872;28;20199;-64
2023/09/02 07:45:13;;;;;;;0.30;0.30;;;;;;;23.11;88.19;98906.06;4190964;28;20290;-64
2023/09/02 07:47:14;;;;;;;0.30;0.30;;;;;;;22.65;86.68;98896.47;4207296;28;20647;-64
2023/09/02 07:49:16;;;;;;;0.10;0.10;;;;;;;23.21;86.27;98905.00;4206645;28;20816;-62
2023/09/02 07:51:18;;;;;;;0.30;0.30;;;;;;;22.69;87.43;98900.25;4205646;28;20198;-63
2023/09/02 07:53:19;;;;;;;0.30;0.30;;;;;;;23.39;86.46;98901.13;4185783;28;20739;-62
2023/09/02 07:55:23;;;;;;;0.30;0.30;;;;;;;23.18;83.87;98905.66;4203851;28;20222;-62
2023/09/02 07:57:25;;;;;;;0.17;0.17;;;;;;;22.99;87.74;98907.84;4204745;28;20202;-62
2023/09/02 07:59:27;;;;;;;0.20;0.20;;;;;;;23.67;84.99;98904.16;4186295;28;20210;-62
2023/09/02 08:01:29;;;;;;;0.20;0.20;;;;;;;23.93;84.08;98913.44;4207089;28;20233;-62
2023/09/02 08:03:31;;;;;;;0.30;0.30;;;;;;;23.41;85.50;98910.84;4203856;28;20202;-62
2023/09/02 08:05:36;;;;;;;0.38;0.38;;;;;;;24.33;80.91;98922.53;4201327;28;20309;-62
2023/09/02 08:07:38;;;;;;;0.30;0.30;;;;;;;24.43;79.67;98917.44;4190428;28;20203;-62
2023/09/02 08:09:40;;;;;;;0.30;0.30;;;;;;;24.33;79.97;98922.53;4204644;28;20290;-61
2023/09/02 08:11:41;;;;;;;0.40;0.40;;;;;;;23.98;79.03;98925.63;4204003;28;20225;-61
2023/09/02 08:13:43;;;;;;;0.30;0.30;;;;;;;23.28;83.18;98922.13;4202257;28;20206;-62
2023/09/02 08:15:45;;;;;;;0.30;0.30;;;;;;;23.62;83.57;98919.44;4203416;28;20256;-62
2023/09/02 08:17:47;;;;;;;0.22;0.22;;;;;;;23.22;86.05;98923.41;4203562;28;20297;-62
2023/09/02 08:19:48;;;;;;;0.45;0.30;;;;;;;23.80;84.65;98919.97;4210208;28;20290;-63
2023/09/02 08:21:50;;;;;;;0.20;0.20;;;;;;;24.70;80.76;98919.06;4207045;28;20264;-64
2023/09/02 08:23:52;;;;;;;0.20;0.20;;;;;;;24.82;79.62;98917.25;4209209;28;20516;-62
2023/09/02 08:25:53;;;;;;;0.28;0.28;;;;;;;24.54;77.17;98918.72;4208862;28;20206;-62
2023/09/02 08:27:55;;;;;;;0.30;0.30;;;;;;;23.96;83.84;98920.38;4185832;28;20227;-61
2023/09/02 08:29:56;;;;;;;0.17;0.17;;;;;;;24.41;81.00;98913.31;4208746;28;20207;-62
2023/09/02 08:31:58;;;;;;;0.20;0.20;;;;;;;25.05;78.01;98915.03;4207921;28;20293;-62
2023/09/02 08:33:59;;;;;;;0.20;0.20;;;;;;;25.22;77.12;98913.00;4209976;28;20236;-62
2023/09/02 08:36:01;;;;;;;0.20;0.20;;;;;;;25.63;72.81;98901.94;4184768;28;20828;-61
2023/09/02 08:38:04;;;;;;;0.20;0.20;;;;;;;25.92;74.60;98904.75;4208634;28;20325;-62
2023/09/02 08:40:06;;;;;;;0.20;0.20;;;;;;;26.26;72.02;98903.66;4185542;28;20202;-62
2023/09/02 08:42:08;;;;;;;0.15;0.15;;;;;;;25.89;74.02;98901.78;4210254;28;20198;-62
2023/09/02 08:44:10;;;;;;;5.57;0.35;;;;;;;25.54;75.04;98909.56;4204383;28;20246;-62
2023/09/02 08:46:12;;;;;;;0.85;0.45;;;;;;;26.42;71.67;98913.94;4184514;28;20253;-62
2023/09/02 08:48:21;;;;;;;0.17;0.17;;;;;;;26.76;70.33;98912.78;4203108;28;20217;-62
2023/09/02 08:50:28;;;;;;;0.20;0.20;;;;;;;26.68;71.22;98916.53;4200609;28;20284;-62
2023/09/02 08:52:29;;;;;;;0.13;0.13;;;;;;;26.30;70.01;98911.06;4179877;28;20655;-62
2023/09/02 08:54:31;;;;;;;0.20;0.20;;;;;;;26.18;70.14;98908.19;4200829;28;20252;-62
2023/09/02 08:56:33;;;;;;;0.10;0.10;;;;;;;26.31;70.97;98917.47;4184794;28;20652;-62
2023/09/02 08:58:38;;;;;;;0.40;0.40;;;;;;;25.81;70.07;98914.69;4204041;28;20206;-62
2023/09/02 09:00:41;;;;;;;0.10;0.10;;;;;;;25.46;73.63;98913.22;4200005;28;20226;-62
2023/09/02 09:02:43;;;;;;;0.20;0.20;;;;;;;26.42;70.78;98902.69;4183829;28;20321;-61
2023/09/02 09:04:48;;;;;;;0.63;0.63;;;;;;;26.24;69.03;98901.19;4185582;28;20233;-62
2023/09/02 09:06:50;;;;;;;0.20;0.20;;;;;;;25.55;73.03;98911.22;4186078;28;20730;-62
2023/09/02 09:08:53;;;;;;;0.20;0.20;;;;;;;26.25;72.31;98913.25;4180174;28;20207;-62
2023/09/02 09:10:56;;;;;;;0.63;0.50;;;;;;;25.88;72.45;98908.53;4187809;28;20237;-62
2023/09/02 09:12:58;;;;;;;0.20;0.20;;;;;;;26.01;72.63;98907.50;4203968;28;20717;-62
2023/09/02 09:15:01;;;;;;;0.73;0.73;;;;;;;26.68;72.11;98906.13;4184708;28;20277;-62
2023/09/02 09:17:03;;;;;;;0.20;0.20;;;;;;;26.23;72.36;98902.38;4185776;28;20227;-61
2023/09/02 09:19:05;;;;;;;0.40;0.40;;;;;;;26.85;71.57;98917.16;4202424;28;20242;-62
2023/09/02 09:21:09;;;;;;;0.10;0.10;;;;;;;27.17;70.22;98918.31;4181907;28;20665;-62
2023/09/02 09:23:10;;;;;;;1.45;0.28;;;;;;;27.40;69.01;98917.53;4185459;28;20305;-61
2023/09/02 09:25:12;;;;;;;0.10;0.10;;;;;;;27.49;67.77;98915.44;4202248;28;20329;-62
2023/09/02 09:27:16;;;;;;;0.30;0.30;;;;;;;27.69;67.39;98920.16;4181327;28;20680;-61
2023/09/02 09:29:18;;;;;;;0.17;0.13;;;;;;;27.70;67.27;98921.78;4203031;28;20209;-61
2023/09/02 09:31:20;;;;;;;0.28;0.28;;;;;;;27.70;66.90;98921.78;4183471;28;20933;-62